sensor_id;sensor_type;location;lat;lon;timestamp;temperature;humidity
44982;DHT22;30716;41.740;-70.400;2023-04-21T00:00:13;23.90;39.20
44982;DHT22;30716;41.740;-70.400;2023-04-21T00:02:39;23.90;39.30
44982;DHT22;30716;41.740;-70.400;2023-04-21T00:05:08;23.90;39.30
44982;DHT22;30716;41.740;-70.400;2023-04-21T00:07:36;23.90;39.30
44982;DHT22;30716;41.740;-70.400;2023-04-21T00:10:06;23.90;39.20
44982;DHT22;30716;41.740;-70.400;2023-04-21T00:12:33;23.90;39.10
44982;DHT22;30716;41.740;-70.400;2023-04-21T00:14:59;23.90;39.10
44982;DHT22;30716;41.740;-70.400;2023-04-21T00:17:25;23.90;39.10
44982;DHT22;30716;41.740;-70.400;2023-04-21T00:19:52;23.90;39.10
44982;DHT22;30716;41.740;-70.400;2023-04-21T00:22:19;23.90;39.20
44982;DHT22;30716;41.740;-70.400;2023-04-21T00:24:46;23.90;39.20
44982;DHT22;30716;41.740;-70.400;2023-04-21T00:27:12;23.90;39.30
44982;DHT22;30716;41.740;-70.400;2023-04-21T00:29:40;23.90;39.20
44982;DHT22;30716;41.740;-70.400;2023-04-21T00:32:07;23.90;39.20
44982;DHT22;30716;41.740;-70.400;2023-04-21T00:34:35;23.90;39.20
44982;DHT22;30716;41.740;-70.400;2023-04-21T00:37:01;23.90;39.20
44982;DHT22;30716;41.740;-70.400;2023-04-21T00:39:27;23.90;39.30
44982;DHT22;30716;41.740;-70.400;2023-04-21T00:41:54;23.90;39.30
44982;DHT22;30716;41.740;-70.400;2023-04-21T00:44:20;23.90;39.30
44982;DHT22;30716;41.740;-70.400;2023-04-21T00:46:46;23.90;39.20
44982;DHT22;30716;41.740;-70.400;2023-04-21T00:49:13;23.90;39.30
44982;DHT22;30716;41.740;-70.400;2023-04-21T00:51:39;23.90;39.30
44982;DHT22;30716;41.740;-70.400;2023-04-21T00:54:07;23.90;39.20
44982;DHT22;30716;41.740;-70.400;2023-04-21T00:56:34;23.90;39.20
44982;DHT22;30716;41.740;-70.400;2023-04-21T00:59:02;23.90;39.30
44982;DHT22;30716;41.740;-70.400;2023-04-21T01:01:29;23.90;39.30
44982;DHT22;30716;41.740;-70.400;2023-04-21T01:03:57;23.90;39.40
44982;DHT22;30716;41.740;-70.400;2023-04-21T01:06:28;23.90;39.40
44982;DHT22;30716;41.740;-70.400;2023-04-21T01:08:55;23.90;39.40
44982;DHT22;30716;41.740;-70.400;2023-04-21T01:11:21;23.90;39.40
44982;DHT22;30716;41.740;-70.400;2023-04-21T01:13:47;23.90;39.40
44982;DHT22;30716;41.740;-70.400;2023-04-21T01:16:17;23.90;39.40
44982;DHT22;30716;41.740;-70.400;2023-04-21T01:18:44;23.90;39.20
44982;DHT22;30716;41.740;-70.400;2023-04-21T01:21:11;23.90;39.40
44982;DHT22;30716;41.740;-70.400;2023-04-21T01:23:39;23.90;39.20
44982;DHT22;30716;41.740;-70.400;2023-04-21T01:26:05;24.00;39.30
44982;DHT22;30716;41.740;-70.400;2023-04-21T01:28:31;23.90;39.10
44982;DHT22;30716;41.740;-70.400;2023-04-21T01:30:57;24.00;39.10
44982;DHT22;30716;41.740;-70.400;2023-04-21T01:33:24;24.00;39.20
44982;DHT22;30716;41.740;-70.400;2023-04-21T01:35:50;24.00;39.00
44982;DHT22;30716;41.740;-70.400;2023-04-21T01:38:16;24.00;38.80
44982;DHT22;30716;41.740;-70.400;2023-04-21T01:40:46;24.10;39.00
44982;DHT22;30716;41.740;-70.400;2023-04-21T01:43:14;24.10;38.90
44982;DHT22;30716;41.740;-70.400;2023-04-21T01:45:41;24.10;38.90
44982;DHT22;30716;41.740;-70.400;2023-04-21T01:48:07;24.10;39.00
44982;DHT22;30716;41.740;-70.400;2023-04-21T01:50:34;24.10;39.00
44982;DHT22;30716;41.740;-70.400;2023-04-21T01:53:00;24.10;39.00
44982;DHT22;30716;41.740;-70.400;2023-04-21T01:55:26;24.10;39.10
44982;DHT22;30716;41.740;-70.400;2023-04-21T01:57:54;24.10;39.00
44982;DHT22;30716;41.740;-70.400;2023-04-21T02:00:22;24.10;39.00
44982;DHT22;30716;41.740;-70.400;2023-04-21T02:02:48;24.10;38.90
44982;DHT22;30716;41.740;-70.400;2023-04-21T02:05:15;24.10;39.00
44982;DHT22;30716;41.740;-70.400;2023-04-21T02:07:41;24.10;39.00
44982;DHT22;30716;41.740;-70.400;2023-04-21T02:10:07;24.10;39.00
44982;DHT22;30716;41.740;-70.400;2023-04-21T02:12:33;24.10;39.00
44982;DHT22;30716;41.740;-70.400;2023-04-21T02:15:00;24.10;39.00
44982;DHT22;30716;41.740;-70.400;2023-04-21T02:17:26;24.10;39.00
44982;DHT22;30716;41.740;-70.400;2023-04-21T02:19:52;24.20;39.00
44982;DHT22;30716;41.740;-70.400;2023-04-21T02:22:21;24.20;39.00
44982;DHT22;30716;41.740;-70.400;2023-04-21T02:24:48;24.20;39.80
44982;DHT22;30716;41.740;-70.400;2023-04-21T02:27:15;24.30;39.10
44982;DHT22;30716;41.740;-70.400;2023-04-21T02:29:41;24.20;39.10
44982;DHT22;30716;41.740;-70.400;2023-04-21T02:32:08;24.20;39.00
44982;DHT22;30716;41.740;-70.400;2023-04-21T02:34:34;24.20;39.00
44982;DHT22;30716;41.740;-70.400;2023-04-21T02:37:00;24.20;39.00
44982;DHT22;30716;41.740;-70.400;2023-04-21T02:39:27;24.30;39.10
44982;DHT22;30716;41.740;-70.400;2023-04-21T02:41:53;24.20;39.00
44982;DHT22;30716;41.740;-70.400;2023-04-21T02:44:19;24.30;39.10
44982;DHT22;30716;41.740;-70.400;2023-04-21T02:46:45;24.30;39.10
44982;DHT22;30716;41.740;-70.400;2023-04-21T02:49:11;24.30;39.10
44982;DHT22;30716;41.740;-70.400;2023-04-21T02:51:38;24.30;39.10
44982;DHT22;30716;41.740;-70.400;2023-04-21T02:54:08;24.30;39.10
44982;DHT22;30716;41.740;-70.400;2023-04-21T02:56:35;24.30;39.10
44982;DHT22;30716;41.740;-70.400;2023-04-21T02:59:01;24.30;39.20
44982;DHT22;30716;41.740;-70.400;2023-04-21T03:01:28;24.30;39.10
44982;DHT22;30716;41.740;-70.400;2023-04-21T03:03:54;24.30;39.10
44982;DHT22;30716;41.740;-70.400;2023-04-21T03:06:20;24.30;39.10
44982;DHT22;30716;41.740;-70.400;2023-04-21T03:08:46;24.30;39.10
44982;DHT22;30716;41.740;-70.400;2023-04-21T03:11:16;24.30;39.10
44982;DHT22;30716;41.740;-70.400;2023-04-21T03:13:42;24.30;39.20
44982;DHT22;30716;41.740;-70.400;2023-04-21T03:16:08;24.30;39.10
44982;DHT22;30716;41.740;-70.400;2023-04-21T03:18:34;24.30;39.10
44982;DHT22;30716;41.740;-70.400;2023-04-21T03:21:01;24.30;39.10
44982;DHT22;30716;41.740;-70.400;2023-04-21T03:23:27;24.30;39.10
44982;DHT22;30716;41.740;-70.400;2023-04-21T03:25:53;24.30;39.10
44982;DHT22;30716;41.740;-70.400;2023-04-21T03:28:20;24.30;39.10
44982;DHT22;30716;41.740;-70.400;2023-04-21T03:30:46;24.30;39.10
44982;DHT22;30716;41.740;-70.400;2023-04-21T03:33:12;24.30;39.10
44982;DHT22;30716;41.740;-70.400;2023-04-21T03:35:38;24.30;39.10
44982;DHT22;30716;41.740;-70.400;2023-04-21T03:38:05;24.30;39.10
44982;DHT22;30716;41.740;-70.400;2023-04-21T03:40:31;24.30;39.10
44982;DHT22;30716;41.740;-70.400;2023-04-21T03:42:57;24.30;39.10
44982;DHT22;30716;41.740;-70.400;2023-04-21T03:45:23;24.30;39.10
44982;DHT22;30716;41.740;-70.400;2023-04-21T03:47:53;24.30;39.90
44982;DHT22;30716;41.740;-70.400;2023-04-21T03:50:20;24.20;39.00
44982;DHT22;30716;41.740;-70.400;2023-04-21T03:52:46;24.30;39.10
44982;DHT22;30716;41.740;-70.400;2023-04-21T03:55:12;24.30;39.90
44982;DHT22;30716;41.740;-70.400;2023-04-21T03:57:39;24.20;39.00
44982;DHT22;30716;41.740;-70.400;2023-04-21T04:00:07;24.30;39.20
44982;DHT22;30716;41.740;-70.400;2023-04-21T04:02:36;24.30;39.20
44982;DHT22;30716;41.740;-70.400;2023-04-21T04:05:03;24.30;39.10
44982;DHT22;30716;41.740;-70.400;2023-04-21T04:07:31;24.30;39.10
44982;DHT22;30716;41.740;-70.400;2023-04-21T04:09:57;24.30;39.90
44982;DHT22;30716;41.740;-70.400;2023-04-21T04:12:23;24.30;39.10
44982;DHT22;30716;41.740;-70.400;2023-04-21T04:14:49;24.30;39.10
44982;DHT22;30716;41.740;-70.400;2023-04-21T04:17:16;24.30;39.10
44982;DHT22;30716;41.740;-70.400;2023-04-21T04:19:42;24.30;39.20
44982;DHT22;30716;41.740;-70.400;2023-04-21T04:22:08;24.30;39.10
44982;DHT22;30716;41.740;-70.400;2023-04-21T04:24:34;24.30;39.10
44982;DHT22;30716;41.740;-70.400;2023-04-21T04:27:01;24.30;39.10
44982;DHT22;30716;41.740;-70.400;2023-04-21T04:29:28;24.30;39.10
44982;DHT22;30716;41.740;-70.400;2023-04-21T04:31:54;24.30;39.10
44982;DHT22;30716;41.740;-70.400;2023-04-21T04:34:22;24.30;39.10
44982;DHT22;30716;41.740;-70.400;2023-04-21T04:36:49;24.30;39.10
44982;DHT22;30716;41.740;-70.400;2023-04-21T04:39:16;24.30;39.10
44982;DHT22;30716;41.740;-70.400;2023-04-21T04:41:42;24.30;39.10
44982;DHT22;30716;41.740;-70.400;2023-04-21T04:44:08;24.30;39.10
44982;DHT22;30716;41.740;-70.400;2023-04-21T04:46:35;24.30;39.10
44982;DHT22;30716;41.740;-70.400;2023-04-21T04:49:02;24.30;39.10
44982;DHT22;30716;41.740;-70.400;2023-04-21T04:51:28;24.30;39.10
44982;DHT22;30716;41.740;-70.400;2023-04-21T04:53:54;24.30;39.10
44982;DHT22;30716;41.740;-70.400;2023-04-21T04:56:21;24.30;39.10
44982;DHT22;30716;41.740;-70.400;2023-04-21T04:58:48;24.30;39.10
44982;DHT22;30716;41.740;-70.400;2023-04-21T05:01:17;24.30;39.10
44982;DHT22;30716;41.740;-70.400;2023-04-21T05:03:44;24.30;39.10
44982;DHT22;30716;41.740;-70.400;2023-04-21T05:06:12;24.30;39.20
44982;DHT22;30716;41.740;-70.400;2023-04-21T05:08:39;24.30;39.10
44982;DHT22;30716;41.740;-70.400;2023-04-21T05:11:06;24.30;39.10
44982;DHT22;30716;41.740;-70.400;2023-04-21T05:13:32;24.30;39.10
44982;DHT22;30716;41.740;-70.400;2023-04-21T05:15:59;24.30;39.10
44982;DHT22;30716;41.740;-70.400;2023-04-21T05:18:28;24.30;39.10
44982;DHT22;30716;41.740;-70.400;2023-04-21T05:20:54;24.30;39.10
44982;DHT22;30716;41.740;-70.400;2023-04-21T05:23:39;24.30;39.10
44982;DHT22;30716;41.740;-70.400;2023-04-21T05:26:05;24.40;39.20
44982;DHT22;30716;41.740;-70.400;2023-04-21T05:28:31;24.30;39.10
44982;DHT22;30716;41.740;-70.400;2023-04-21T05:30:57;24.40;39.20
44982;DHT22;30716;41.740;-70.400;2023-04-21T05:33:24;24.30;39.10
44982;DHT22;30716;41.740;-70.400;2023-04-21T05:35:51;24.30;39.10
44982;DHT22;30716;41.740;-70.400;2023-04-21T05:38:17;24.40;39.20
44982;DHT22;30716;41.740;-70.400;2023-04-21T05:40:43;24.40;39.20
44982;DHT22;30716;41.740;-70.400;2023-04-21T05:43:10;24.40;39.20
44982;DHT22;30716;41.740;-70.400;2023-04-21T05:45:39;24.40;39.20
44982;DHT22;30716;41.740;-70.400;2023-04-21T05:48:05;24.40;39.20
44982;DHT22;30716;41.740;-70.400;2023-04-21T05:50:31;24.40;39.10
44982;DHT22;30716;41.740;-70.400;2023-04-21T05:53:00;24.40;39.20
44982;DHT22;30716;41.740;-70.400;2023-04-21T05:55:26;24.40;39.20
44982;DHT22;30716;41.740;-70.400;2023-04-21T05:57:53;24.40;39.20
44982;DHT22;30716;41.740;-70.400;2023-04-21T06:00:19;24.40;39.20
44982;DHT22;30716;41.740;-70.400;2023-04-21T06:02:45;24.40;39.20
44982;DHT22;30716;41.740;-70.400;2023-04-21T06:05:11;24.40;39.20
44982;DHT22;30716;41.740;-70.400;2023-04-21T06:07:37;24.40;39.20
44982;DHT22;30716;41.740;-70.400;2023-04-21T06:10:04;24.40;39.20
44982;DHT22;30716;41.740;-70.400;2023-04-21T06:12:30;24.40;39.20
44982;DHT22;30716;41.740;-70.400;2023-04-21T06:14:56;24.40;39.20
44982;DHT22;30716;41.740;-70.400;2023-04-21T06:17:23;24.40;39.20
44982;DHT22;30716;41.740;-70.400;2023-04-21T06:19:49;24.40;39.20
44982;DHT22;30716;41.740;-70.400;2023-04-21T06:22:19;24.40;39.20
44982;DHT22;30716;41.740;-70.400;2023-04-21T06:24:45;24.40;39.20
44982;DHT22;30716;41.740;-70.400;2023-04-21T06:27:12;24.40;39.20
44982;DHT22;30716;41.740;-70.400;2023-04-21T06:29:38;24.40;39.20
44982;DHT22;30716;41.740;-70.400;2023-04-21T06:32:04;24.40;39.20
44982;DHT22;30716;41.740;-70.400;2023-04-21T06:34:31;24.40;39.20
44982;DHT22;30716;41.740;-70.400;2023-04-21T06:36:57;24.40;39.20
44982;DHT22;30716;41.740;-70.400;2023-04-21T06:39:23;24.40;39.20
44982;DHT22;30716;41.740;-70.400;2023-04-21T06:41:49;24.40;39.20
44982;DHT22;30716;41.740;-70.400;2023-04-21T06:44:15;24.30;39.10
44982;DHT22;30716;41.740;-70.400;2023-04-21T06:46:41;24.40;39.20
44982;DHT22;30716;41.740;-70.400;2023-04-21T06:49:08;24.30;39.10
44982;DHT22;30716;41.740;-70.400;2023-04-21T06:51:34;24.40;39.20
44982;DHT22;30716;41.740;-70.400;2023-04-21T06:54:00;24.30;39.10
44982;DHT22;30716;41.740;-70.400;2023-04-21T06:56:27;24.40;39.20
44982;DHT22;30716;41.740;-70.400;2023-04-21T06:58:53;24.40;39.20
44982;DHT22;30716;41.740;-70.400;2023-04-21T07:01:19;24.40;39.20
44982;DHT22;30716;41.740;-70.400;2023-04-21T07:03:45;24.40;39.20
44982;DHT22;30716;41.740;-70.400;2023-04-21T07:06:11;24.40;39.20
44982;DHT22;30716;41.740;-70.400;2023-04-21T07:08:37;24.40;39.20
44982;DHT22;30716;41.740;-70.400;2023-04-21T07:11:04;24.40;39.20
44982;DHT22;30716;41.740;-70.400;2023-04-21T07:13:30;24.40;39.20
44982;DHT22;30716;41.740;-70.400;2023-04-21T07:15:56;24.40;39.20
44982;DHT22;30716;41.740;-70.400;2023-04-21T07:18:22;24.40;39.20
44982;DHT22;30716;41.740;-70.400;2023-04-21T07:20:49;24.40;39.20
44982;DHT22;30716;41.740;-70.400;2023-04-21T07:23:15;24.40;39.20
44982;DHT22;30716;41.740;-70.400;2023-04-21T07:25:41;24.40;39.20
44982;DHT22;30716;41.740;-70.400;2023-04-21T07:28:07;24.40;39.20
44982;DHT22;30716;41.740;-70.400;2023-04-21T07:30:34;24.40;39.20
44982;DHT22;30716;41.740;-70.400;2023-04-21T07:33:00;24.40;39.20
44982;DHT22;30716;41.740;-70.400;2023-04-21T07:35:26;24.40;39.20
44982;DHT22;30716;41.740;-70.400;2023-04-21T07:37:52;24.40;39.20
44982;DHT22;30716;41.740;-70.400;2023-04-21T07:40:19;24.40;39.20
44982;DHT22;30716;41.740;-70.400;2023-04-21T07:42:45;24.40;39.20
44982;DHT22;30716;41.740;-70.400;2023-04-21T07:45:11;24.40;39.20
44982;DHT22;30716;41.740;-70.400;2023-04-21T07:47:37;24.40;39.20
44982;DHT22;30716;41.740;-70.400;2023-04-21T07:50:04;24.40;39.20
44982;DHT22;30716;41.740;-70.400;2023-04-21T07:52:30;24.40;39.20
44982;DHT22;30716;41.740;-70.400;2023-04-21T07:54:56;24.40;39.30
44982;DHT22;30716;41.740;-70.400;2023-04-21T07:57:22;24.40;39.20
44982;DHT22;30716;41.740;-70.400;2023-04-21T07:59:49;24.50;39.30
44982;DHT22;30716;41.740;-70.400;2023-04-21T08:02:15;24.40;39.20
44982;DHT22;30716;41.740;-70.400;2023-04-21T08:04:41;24.50;39.40
44982;DHT22;30716;41.740;-70.400;2023-04-21T08:07:07;24.40;39.20
44982;DHT22;30716;41.740;-70.400;2023-04-21T08:09:34;24.50;39.30
44982;DHT22;30716;41.740;-70.400;2023-04-21T08:12:00;24.50;39.40
44982;DHT22;30716;41.740;-70.400;2023-04-21T08:14:27;24.40;39.20
44982;DHT22;30716;41.740;-70.400;2023-04-21T08:16:53;24.40;39.20
44982;DHT22;30716;41.740;-70.400;2023-04-21T08:19:20;24.50;39.30
44982;DHT22;30716;41.740;-70.400;2023-04-21T08:21:46;24.40;39.20
44982;DHT22;30716;41.740;-70.400;2023-04-21T08:24:12;24.40;39.20
44982;DHT22;30716;41.740;-70.400;2023-04-21T08:26:38;24.40;39.20
44982;DHT22;30716;41.740;-70.400;2023-04-21T08:29:04;24.50;39.30
44982;DHT22;30716;41.740;-70.400;2023-04-21T08:31:32;24.50;39.30
44982;DHT22;30716;41.740;-70.400;2023-04-21T08:33:58;24.50;39.30
44982;DHT22;30716;41.740;-70.400;2023-04-21T08:36:27;24.50;39.20
44982;DHT22;30716;41.740;-70.400;2023-04-21T08:38:53;24.50;39.30
44982;DHT22;30716;41.740;-70.400;2023-04-21T08:41:19;24.50;39.30
44982;DHT22;30716;41.740;-70.400;2023-04-21T08:43:46;24.50;39.30
44982;DHT22;30716;41.740;-70.400;2023-04-21T08:46:14;24.50;39.30
44982;DHT22;30716;41.740;-70.400;2023-04-21T08:48:40;24.50;39.30
44982;DHT22;30716;41.740;-70.400;2023-04-21T08:51:08;24.50;39.30
44982;DHT22;30716;41.740;-70.400;2023-04-21T08:53:39;24.50;39.30
44982;DHT22;30716;41.740;-70.400;2023-04-21T08:56:06;24.50;39.30
44982;DHT22;30716;41.740;-70.400;2023-04-21T08:58:32;24.50;39.30
44982;DHT22;30716;41.740;-70.400;2023-04-21T09:00:58;24.50;39.30
44982;DHT22;30716;41.740;-70.400;2023-04-21T09:03:26;24.50;39.30
44982;DHT22;30716;41.740;-70.400;2023-04-21T09:05:57;24.50;39.30
44982;DHT22;30716;41.740;-70.400;2023-04-21T09:08:24;24.50;39.30
44982;DHT22;30716;41.740;-70.400;2023-04-21T09:10:53;24.50;39.30
44982;DHT22;30716;41.740;-70.400;2023-04-21T09:13:19;24.50;39.30
44982;DHT22;30716;41.740;-70.400;2023-04-21T09:15:50;24.50;39.30
44982;DHT22;30716;41.740;-70.400;2023-04-21T09:18:24;24.50;39.20
44982;DHT22;30716;41.740;-70.400;2023-04-21T09:21:26;24.50;39.30
44982;DHT22;30716;41.740;-70.400;2023-04-21T09:23:49;24.50;39.30
44982;DHT22;30716;41.740;-70.400;2023-04-21T09:26:18;24.50;39.30
44982;DHT22;30716;41.740;-70.400;2023-04-21T09:28:46;24.50;39.40
44982;DHT22;30716;41.740;-70.400;2023-04-21T09:31:18;24.50;39.30
44982;DHT22;30716;41.740;-70.400;2023-04-21T09:33:52;24.50;39.30
44982;DHT22;30716;41.740;-70.400;2023-04-21T09:36:24;24.50;39.30
44982;DHT22;30716;41.740;-70.400;2023-04-21T09:38:54;24.50;39.30
44982;DHT22;30716;41.740;-70.400;2023-04-21T09:41:22;24.50;39.20
44982;DHT22;30716;41.740;-70.400;2023-04-21T09:43:50;24.50;39.30
44982;DHT22;30716;41.740;-70.400;2023-04-21T09:46:17;24.50;39.30
44982;DHT22;30716;41.740;-70.400;2023-04-21T09:48:44;24.50;39.30
44982;DHT22;30716;41.740;-70.400;2023-04-21T09:51:12;24.50;39.30
44982;DHT22;30716;41.740;-70.400;2023-04-21T09:53:39;24.50;39.30
44982;DHT22;30716;41.740;-70.400;2023-04-21T09:56:13;24.50;39.30
44982;DHT22;30716;41.740;-70.400;2023-04-21T09:58:47;24.50;39.30
44982;DHT22;30716;41.740;-70.400;2023-04-21T10:01:14;24.50;39.30
44982;DHT22;30716;41.740;-70.400;2023-04-21T10:03:43;24.50;39.30
44982;DHT22;30716;41.740;-70.400;2023-04-21T10:06:11;24.50;39.30
44982;DHT22;30716;41.740;-70.400;2023-04-21T10:08:37;24.50;39.60
44982;DHT22;30716;41.740;-70.400;2023-04-21T10:11:04;24.40;39.20
44982;DHT22;30716;41.740;-70.400;2023-04-21T10:13:32;24.40;39.20
44982;DHT22;30716;41.740;-70.400;2023-04-21T10:16:05;24.40;39.20
44982;DHT22;30716;41.740;-70.400;2023-04-21T10:18:36;24.50;39.40
44982;DHT22;30716;41.740;-70.400;2023-04-21T10:21:08;24.40;39.20
44982;DHT22;30716;41.740;-70.400;2023-04-21T10:23:45;24.40;39.20
44982;DHT22;30716;41.740;-70.400;2023-04-21T10:29:00;24.40;39.20
44982;DHT22;30716;41.740;-70.400;2023-04-21T10:39:26;24.40;39.20
44982;DHT22;30716;41.740;-70.400;2023-04-21T10:41:56;24.40;39.20
44982;DHT22;30716;41.740;-70.400;2023-04-21T10:44:23;24.30;39.10
44982;DHT22;30716;41.740;-70.400;2023-04-21T10:46:50;24.40;39.20
44982;DHT22;30716;41.740;-70.400;2023-04-21T10:54:28;24.30;39.10
44982;DHT22;30716;41.740;-70.400;2023-04-21T10:56:56;24.30;39.10
44982;DHT22;30716;41.740;-70.400;2023-04-21T10:59:23;24.30;39.10
44982;DHT22;30716;41.740;-70.400;2023-04-21T11:01:50;24.30;39.10
44982;DHT22;30716;41.740;-70.400;2023-04-21T11:04:18;24.30;39.10
44982;DHT22;30716;41.740;-70.400;2023-04-21T11:07:04;24.30;39.10
44982;DHT22;30716;41.740;-70.400;2023-04-21T11:09:31;24.30;39.10
44982;DHT22;30716;41.740;-70.400;2023-04-21T11:12:02;24.30;39.10
44982;DHT22;30716;41.740;-70.400;2023-04-21T11:14:29;24.20;39.00
44982;DHT22;30716;41.740;-70.400;2023-04-21T11:16:56;24.30;39.10
44982;DHT22;30716;41.740;-70.400;2023-04-21T11:19:22;24.20;39.10
44982;DHT22;30716;41.740;-70.400;2023-04-21T11:21:50;24.20;39.00
44982;DHT22;30716;41.740;-70.400;2023-04-21T11:24:16;24.30;39.10
44982;DHT22;30716;41.740;-70.400;2023-04-21T11:26:42;24.30;39.10
44982;DHT22;30716;41.740;-70.400;2023-04-21T11:29:09;24.20;39.10
44982;DHT22;30716;41.740;-70.400;2023-04-21T11:31:39;24.20;39.10
44982;DHT22;30716;41.740;-70.400;2023-04-21T11:34:06;24.20;39.20
44982;DHT22;30716;41.740;-70.400;2023-04-21T11:36:37;24.20;39.20
44982;DHT22;30716;41.740;-70.400;2023-04-21T11:39:05;24.20;39.30
44982;DHT22;30716;41.740;-70.400;2023-04-21T11:41:37;24.20;39.20
44982;DHT22;30716;41.740;-70.400;2023-04-21T11:44:03;24.20;39.10
44982;DHT22;30716;41.740;-70.400;2023-04-21T11:46:30;24.20;39.00
44982;DHT22;30716;41.740;-70.400;2023-04-21T11:49:10;24.20;39.80
44982;DHT22;30716;41.740;-70.400;2023-04-21T11:51:38;24.30;39.20
44982;DHT22;30716;41.740;-70.400;2023-04-21T11:54:06;24.30;39.20
44982;DHT22;30716;41.740;-70.400;2023-04-21T11:56:40;24.20;39.20
44982;DHT22;30716;41.740;-70.400;2023-04-21T11:59:12;24.20;39.30
44982;DHT22;30716;41.740;-70.400;2023-04-21T12:01:45;24.20;39.10
44982;DHT22;30716;41.740;-70.400;2023-04-21T12:04:29;24.20;39.10
44982;DHT22;30716;41.740;-70.400;2023-04-21T12:07:00;24.20;39.40
44982;DHT22;30716;41.740;-70.400;2023-04-21T12:09:27;24.20;39.30
44982;DHT22;30716;41.740;-70.400;2023-04-21T12:11:55;24.20;39.30
44982;DHT22;30716;41.740;-70.400;2023-04-21T12:14:23;24.30;39.20
44982;DHT22;30716;41.740;-70.400;2023-04-21T12:16:54;24.20;39.40
44982;DHT22;30716;41.740;-70.400;2023-04-21T12:19:39;24.30;39.20
44982;DHT22;30716;41.740;-70.400;2023-04-21T12:22:09;24.20;39.20
44982;DHT22;30716;41.740;-70.400;2023-04-21T12:24:36;24.20;39.10
44982;DHT22;30716;41.740;-70.400;2023-04-21T12:27:03;24.20;39.20
44982;DHT22;30716;41.740;-70.400;2023-04-21T12:29:29;24.20;39.20
44982;DHT22;30716;41.740;-70.400;2023-04-21T12:31:55;24.20;39.10
44982;DHT22;30716;41.740;-70.400;2023-04-21T12:34:21;24.20;39.20
44982;DHT22;30716;41.740;-70.400;2023-04-21T12:36:48;24.20;39.00
44982;DHT22;30716;41.740;-70.400;2023-04-21T12:39:14;24.20;39.30
44982;DHT22;30716;41.740;-70.400;2023-04-21T12:41:42;24.20;39.10
44982;DHT22;30716;41.740;-70.400;2023-04-21T12:44:08;24.20;39.00
44982;DHT22;30716;41.740;-70.400;2023-04-21T12:46:34;24.20;39.10
44982;DHT22;30716;41.740;-70.400;2023-04-21T12:49:00;24.20;39.00
44982;DHT22;30716;41.740;-70.400;2023-04-21T12:51:26;24.20;39.30
44982;DHT22;30716;41.740;-70.400;2023-04-21T12:53:52;24.20;39.30
44982;DHT22;30716;41.740;-70.400;2023-04-21T12:56:19;24.20;39.20
44982;DHT22;30716;41.740;-70.400;2023-04-21T12:58:45;24.20;39.30
44982;DHT22;30716;41.740;-70.400;2023-04-21T13:01:13;24.20;39.30
44982;DHT22;30716;41.740;-70.400;2023-04-21T13:03:41;24.20;39.50
44982;DHT22;30716;41.740;-70.400;2023-04-21T13:06:07;24.20;39.40
44982;DHT22;30716;41.740;-70.400;2023-04-21T13:08:34;24.20;39.50
44982;DHT22;30716;41.740;-70.400;2023-04-21T13:11:01;24.20;39.50
44982;DHT22;30716;41.740;-70.400;2023-04-21T13:13:27;24.20;39.40
44982;DHT22;30716;41.740;-70.400;2023-04-21T13:15:54;24.20;39.50
44982;DHT22;30716;41.740;-70.400;2023-04-21T13:18:20;24.20;39.50
44982;DHT22;30716;41.740;-70.400;2023-04-21T13:20:46;24.20;39.50
44982;DHT22;30716;41.740;-70.400;2023-04-21T13:23:12;24.20;39.50
44982;DHT22;30716;41.740;-70.400;2023-04-21T13:25:40;24.20;39.50
44982;DHT22;30716;41.740;-70.400;2023-04-21T13:28:06;24.20;39.40
44982;DHT22;30716;41.740;-70.400;2023-04-21T13:30:33;24.20;39.60
44982;DHT22;30716;41.740;-70.400;2023-04-21T13:33:01;24.20;39.60
44982;DHT22;30716;41.740;-70.400;2023-04-21T13:35:27;24.20;39.60
44982;DHT22;30716;41.740;-70.400;2023-04-21T13:37:53;24.20;39.60
44982;DHT22;30716;41.740;-70.400;2023-04-21T13:40:19;24.20;39.70
44982;DHT22;30716;41.740;-70.400;2023-04-21T13:42:46;24.20;39.60
44982;DHT22;30716;41.740;-70.400;2023-04-21T13:45:12;24.20;39.60
44982;DHT22;30716;41.740;-70.400;2023-04-21T13:47:38;24.10;39.50
44982;DHT22;30716;41.740;-70.400;2023-04-21T13:50:05;24.10;39.50
44982;DHT22;30716;41.740;-70.400;2023-04-21T13:52:31;24.10;39.70
44982;DHT22;30716;41.740;-70.400;2023-04-21T13:54:59;24.10;39.60
44982;DHT22;30716;41.740;-70.400;2023-04-21T13:57:25;24.10;39.60
44982;DHT22;30716;41.740;-70.400;2023-04-21T13:59:52;24.10;39.50
44982;DHT22;30716;41.740;-70.400;2023-04-21T14:02:19;24.10;39.60
44982;DHT22;30716;41.740;-70.400;2023-04-21T14:04:48;24.20;39.80
44982;DHT22;30716;41.740;-70.400;2023-04-21T14:07:14;24.20;39.80
44982;DHT22;30716;41.740;-70.400;2023-04-21T14:09:43;24.20;39.90
44982;DHT22;30716;41.740;-70.400;2023-04-21T14:12:09;24.10;39.90
44982;DHT22;30716;41.740;-70.400;2023-04-21T14:14:36;24.10;39.80
44982;DHT22;30716;41.740;-70.400;2023-04-21T14:17:02;24.10;39.90
44982;DHT22;30716;41.740;-70.400;2023-04-21T14:19:28;24.10;39.80
44982;DHT22;30716;41.740;-70.400;2023-04-21T14:21:56;24.10;39.80
44982;DHT22;30716;41.740;-70.400;2023-04-21T14:24:22;24.10;39.90
44982;DHT22;30716;41.740;-70.400;2023-04-21T14:26:51;24.10;40.00
44982;DHT22;30716;41.740;-70.400;2023-04-21T14:29:18;24.10;40.00
44982;DHT22;30716;41.740;-70.400;2023-04-21T14:31:44;24.10;40.00
44982;DHT22;30716;41.740;-70.400;2023-04-21T14:34:10;24.10;40.00
44982;DHT22;30716;41.740;-70.400;2023-04-21T14:36:36;24.10;40.00
44982;DHT22;30716;41.740;-70.400;2023-04-21T14:39:02;24.10;40.00
44982;DHT22;30716;41.740;-70.400;2023-04-21T14:41:29;24.10;40.00
44982;DHT22;30716;41.740;-70.400;2023-04-21T14:43:55;24.10;40.00
44982;DHT22;30716;41.740;-70.400;2023-04-21T14:46:22;24.10;40.00
44982;DHT22;30716;41.740;-70.400;2023-04-21T14:48:48;24.10;40.10
44982;DHT22;30716;41.740;-70.400;2023-04-21T14:51:14;24.10;40.20
44982;DHT22;30716;41.740;-70.400;2023-04-21T14:53:41;24.00;40.00
44982;DHT22;30716;41.740;-70.400;2023-04-21T14:56:07;24.10;40.20
44982;DHT22;30716;41.740;-70.400;2023-04-21T14:58:33;24.00;40.20
44982;DHT22;30716;41.740;-70.400;2023-04-21T15:00:59;24.00;40.20
44982;DHT22;30716;41.740;-70.400;2023-04-21T15:03:25;24.00;40.20
44982;DHT22;30716;41.740;-70.400;2023-04-21T15:05:52;23.90;40.10
44982;DHT22;30716;41.740;-70.400;2023-04-21T15:08:18;24.00;40.30
44982;DHT22;30716;41.740;-70.400;2023-04-21T15:10:44;23.90;40.10
44982;DHT22;30716;41.740;-70.400;2023-04-21T15:13:10;23.90;40.10
44982;DHT22;30716;41.740;-70.400;2023-04-21T15:15:36;24.00;40.10
44982;DHT22;30716;41.740;-70.400;2023-04-21T15:18:03;24.00;40.20